createdAt,value
2022-10-06T00:02:23.168Z,14.90
2022-10-06T00:04:49.749Z,14.53
2022-10-06T00:07:16.636Z,16.17
2022-10-06T00:09:43.156Z,13.07
2022-10-06T00:12:10.025Z,15.07
2022-10-06T00:14:37.171Z,12.20
2022-10-06T00:17:06.812Z,13.87
2022-10-06T00:19:33.253Z,12.60
2022-10-06T00:21:59.701Z,17.43
2022-10-06T00:24:27.170Z,13.57
2022-10-06T00:26:53.682Z,13.27
2022-10-06T00:29:20.135Z,15.53
2022-10-06T00:31:46.639Z,11.43
2022-10-06T00:34:13.153Z,19.13
2022-10-06T00:36:39.904Z,12.33
2022-10-06T00:39:06.396Z,9.67
2022-10-06T00:41:33.015Z,15.73
2022-10-06T00:43:59.665Z,14.20
2022-10-06T00:46:35.248Z,9.60
2022-10-06T00:49:27.923Z,11.83
2022-10-06T00:52:09.796Z,12.87
2022-10-06T00:54:36.895Z,11.07
2022-10-06T00:57:05.492Z,15.27
2022-10-06T00:59:32.648Z,14.07
2022-10-06T01:02:09.281Z,11.20
2022-10-06T01:04:38.575Z,11.63
2022-10-06T01:07:05.175Z,11.67
2022-10-06T01:09:31.862Z,12.30
2022-10-06T01:12:03.053Z,9.17
2022-10-06T01:14:30.154Z,10.97
2022-10-06T01:17:04.915Z,10.23
2022-10-06T01:19:52.838Z,10.50
2022-10-06T01:22:29.030Z,10.50
2022-10-06T01:24:55.922Z,10.53
2022-10-06T01:27:23.714Z,11.87
2022-10-06T01:29:52.792Z,9.63
2022-10-06T01:32:19.872Z,9.40
2022-10-06T01:34:46.321Z,14.47
2022-10-06T01:37:12.862Z,12.30
2022-10-06T01:39:39.278Z,8.33
2022-10-06T01:42:05.787Z,14.30
2022-10-06T01:44:32.384Z,13.33
2022-10-06T01:46:58.838Z,13.47
2022-10-06T01:49:25.306Z,9.27
2022-10-06T01:51:52.045Z,13.20
2022-10-06T01:54:18.487Z,8.73
2022-10-06T01:56:45.013Z,11.30
2022-10-06T01:59:11.630Z,9.83
2022-10-06T02:01:38.232Z,8.40
2022-10-06T02:04:04.989Z,9.33
2022-10-06T02:06:31.696Z,10.03
2022-10-06T02:08:58.142Z,15.53
2022-10-06T02:11:24.588Z,15.63
2022-10-06T02:13:51.063Z,11.33
2022-10-06T02:16:17.617Z,18.37
2022-10-06T02:18:44.572Z,7.17
2022-10-06T02:21:16.304Z,14.90
2022-10-06T02:23:42.836Z,10.73
2022-10-06T02:26:09.247Z,11.43
2022-10-06T02:28:36.256Z,13.80
2022-10-06T02:31:05.393Z,12.67
2022-10-06T02:33:31.902Z,9.27
2022-10-06T02:35:58.500Z,10.13
2022-10-06T02:38:27.858Z,11.77
2022-10-06T02:40:54.642Z,13.40
2022-10-06T02:43:21.671Z,13.00
2022-10-06T02:45:58.752Z,7.97
2022-10-06T02:48:27.271Z,12.13
2022-10-06T02:50:58.797Z,10.37
2022-10-06T02:53:25.929Z,9.30
2022-10-06T02:56:22.975Z,13.20
2022-10-06T02:58:50.170Z,12.67
2022-10-06T03:01:25.559Z,8.63
2022-10-06T03:03:52.689Z,13.80
2022-10-06T03:06:21.916Z,9.13
2022-10-06T03:08:55.409Z,11.13
2022-10-06T03:11:24.249Z,13.43
2022-10-06T03:13:51.398Z,12.03
2022-10-06T03:16:23.912Z,10.60
2022-10-06T03:18:51.537Z,10.03
2022-10-06T03:21:19.628Z,7.60
2022-10-06T03:23:50.509Z,10.53
2022-10-06T03:26:20.400Z,10.77
2022-10-06T03:28:47.248Z,8.53
2022-10-06T03:31:14.615Z,9.87
2022-10-06T03:33:41.102Z,11.20
2022-10-06T03:36:10.872Z,11.47
2022-10-06T03:38:37.646Z,13.30
2022-10-06T03:41:17.748Z,14.57
2022-10-06T03:43:46.007Z,8.17
2022-10-06T03:46:14.231Z,9.90
2022-10-06T03:48:41.565Z,11.30
2022-10-06T03:51:11.530Z,11.00
2022-10-06T03:53:39.392Z,11.33
2022-10-06T03:56:10.747Z,13.53
2022-10-06T03:58:38.985Z,14.70
2022-10-06T04:01:11.139Z,11.40
2022-10-06T04:03:37.599Z,8.17
2022-10-06T04:06:06.599Z,13.27
2022-10-06T04:08:34.187Z,10.10
2022-10-06T04:11:11.380Z,13.50
2022-10-06T04:13:38.368Z,12.23
2022-10-06T04:16:15.075Z,11.83
2022-10-06T04:18:42.681Z,11.73
2022-10-06T04:21:09.856Z,14.47
2022-10-06T04:23:39.306Z,17.17
2022-10-06T04:26:09.889Z,10.63
2022-10-06T04:28:40.891Z,8.97
2022-10-06T04:31:15.685Z,10.73
2022-10-06T04:33:43.232Z,11.30
2022-10-06T04:36:14.315Z,10.60
2022-10-06T04:38:40.739Z,10.83
2022-10-06T04:41:10.604Z,11.00
2022-10-06T04:43:37.153Z,9.07
2022-10-06T04:46:23.951Z,11.10
2022-10-06T04:48:52.505Z,14.60
2022-10-06T04:51:19.719Z,12.30
2022-10-06T04:53:46.321Z,11.37
2022-10-06T04:56:20.932Z,10.33
2022-10-06T04:58:48.784Z,15.23
2022-10-06T05:01:25.372Z,17.73
2022-10-06T05:03:56.066Z,15.67
2022-10-06T05:06:28.073Z,14.17
2022-10-06T05:09:04.012Z,12.33
2022-10-06T05:11:31.979Z,12.07
2022-10-06T05:14:00.036Z,12.53
2022-10-06T05:16:28.675Z,15.07
2022-10-06T05:18:55.564Z,11.03
2022-10-06T05:21:24.428Z,9.17
2022-10-06T05:23:50.973Z,14.50
2022-10-06T05:26:20.026Z,10.10
2022-10-06T05:28:46.733Z,12.73
2022-10-06T05:31:14.583Z,17.10
2022-10-06T05:33:41.913Z,11.67
2022-10-06T05:36:11.526Z,9.77
2022-10-06T05:38:38.208Z,10.20
2022-10-06T05:41:06.756Z,13.50
2022-10-06T05:43:34.113Z,13.00
2022-10-06T05:46:03.807Z,11.53
2022-10-06T05:48:31.113Z,13.50
2022-10-06T05:51:05.255Z,12.20
2022-10-06T05:53:33.793Z,12.53
2022-10-06T05:56:11.924Z,10.60
2022-10-06T05:58:40.214Z,11.57
2022-10-06T06:01:18.648Z,8.53
2022-10-06T06:03:56.253Z,12.50
2022-10-06T06:06:27.486Z,9.80
2022-10-06T06:08:56.040Z,13.47
2022-10-06T06:11:26.374Z,11.47
2022-10-06T06:13:53.721Z,12.70
2022-10-06T06:16:20.238Z,11.60
2022-10-06T06:18:47.027Z,8.80
2022-10-06T06:21:13.575Z,11.90
2022-10-06T06:23:46.467Z,9.37
2022-10-06T06:26:18.066Z,10.37
2022-10-06T06:28:48.708Z,10.47
2022-10-06T06:31:23.257Z,9.10
2022-10-06T06:33:54.723Z,13.40
2022-10-06T06:36:26.617Z,10.07
2022-10-06T06:38:54.878Z,12.50
2022-10-06T06:41:22.334Z,11.73
2022-10-06T06:43:49.945Z,8.50
2022-10-06T06:46:18.398Z,10.53
2022-10-06T06:48:45.346Z,19.67
2022-10-06T06:51:12.259Z,11.67
2022-10-06T06:53:41.656Z,11.43
2022-10-06T06:56:09.356Z,8.33
2022-10-06T06:58:36.060Z,11.47
2022-10-06T07:01:13.619Z,11.10
2022-10-06T07:03:57.101Z,12.00
2022-10-06T07:06:28.145Z,12.23
2022-10-06T07:08:56.128Z,9.63
2022-10-06T07:11:24.958Z,12.80
2022-10-06T07:13:53.517Z,13.27
2022-10-06T07:16:40.132Z,13.83
2022-10-06T07:19:25.950Z,10.03
2022-10-06T07:22:12.427Z,9.97
2022-10-06T07:24:57.744Z,10.43
2022-10-06T07:27:24.836Z,8.17
2022-10-06T07:29:55.266Z,9.53
2022-10-06T07:32:23.941Z,10.13
2022-10-06T07:34:51.414Z,13.17
2022-10-06T07:37:19.136Z,14.00
2022-10-06T07:39:46.314Z,12.47
2022-10-06T07:42:15.219Z,13.60
2022-10-06T07:44:42.735Z,11.07
2022-10-06T07:47:09.261Z,10.70
2022-10-06T07:49:35.931Z,10.83
2022-10-06T07:52:05.199Z,9.67
2022-10-06T07:54:31.718Z,12.70
2022-10-06T07:56:58.545Z,14.00
2022-10-06T07:59:25.120Z,12.00
2022-10-06T08:01:52.952Z,13.20
2022-10-06T08:04:19.533Z,14.90
2022-10-06T08:06:47.749Z,7.93
2022-10-06T08:09:14.203Z,9.20
2022-10-06T08:11:40.748Z,9.67
2022-10-06T08:14:07.225Z,13.33
2022-10-06T08:16:33.870Z,13.53
2022-10-06T08:19:00.829Z,16.10
2022-10-06T08:21:30.088Z,14.77
2022-10-06T08:23:58.694Z,11.03
2022-10-06T08:26:27.292Z,6.90
2022-10-06T08:28:57.787Z,10.93
2022-10-06T08:31:24.636Z,12.27
2022-10-06T08:33:56.242Z,8.87
2022-10-06T08:36:30.841Z,11.60
2022-10-06T08:38:59.240Z,9.50
2022-10-06T08:41:40.231Z,9.87
2022-10-06T08:44:19.799Z,11.00
2022-10-06T08:46:51.671Z,9.30
2022-10-06T08:49:20.875Z,9.10
2022-10-06T08:51:53.959Z,10.03
2022-10-06T08:54:35.449Z,7.90
2022-10-06T08:57:21.710Z,7.87
2022-10-06T08:59:49.706Z,7.90
2022-10-06T09:02:27.378Z,9.50
2022-10-06T09:04:54.233Z,7.07
2022-10-06T09:07:28.614Z,8.43
2022-10-06T09:10:07.782Z,8.53
2022-10-06T09:12:49.082Z,10.73
2022-10-06T09:15:30.199Z,12.07
2022-10-06T09:18:04.977Z,8.50
2022-10-06T09:20:37.915Z,11.87
2022-10-06T09:23:09.084Z,9.60
2022-10-06T09:25:37.942Z,11.87
2022-10-06T09:28:16.051Z,9.67
2022-10-06T09:30:43.400Z,9.10
2022-10-06T09:33:19.056Z,7.37
2022-10-06T09:36:09.061Z,10.43
2022-10-06T09:38:47.938Z,7.07
2022-10-06T09:41:15.751Z,8.53
2022-10-06T09:43:53.064Z,14.97
2022-10-06T09:46:41.878Z,10.30
2022-10-06T09:49:16.097Z,12.57
2022-10-06T09:52:18.601Z,5.37
2022-10-06T09:54:45.297Z,8.60
2022-10-06T09:57:16.601Z,12.17
2022-10-06T09:59:47.296Z,8.10
2022-10-06T10:02:37.073Z,9.03
2022-10-06T10:05:18.058Z,6.97
2022-10-06T10:07:48.145Z,5.57
2022-10-06T10:10:19.808Z,10.97
2022-10-06T10:13:24.195Z,8.80
2022-10-06T10:15:55.000Z,5.03
2022-10-06T10:18:26.807Z,5.03
2022-10-06T10:21:01.034Z,8.27
2022-10-06T10:23:33.433Z,5.50
2022-10-06T10:26:36.902Z,5.70
2022-10-06T10:29:32.861Z,10.87
2022-10-06T10:32:11.978Z,6.47
2022-10-06T10:34:49.234Z,10.80
2022-10-06T10:37:41.203Z,11.13
2022-10-06T10:40:17.807Z,7.13
2022-10-06T10:42:56.191Z,6.50
2022-10-06T10:45:34.037Z,12.87
2022-10-06T10:48:03.268Z,9.13
2022-10-06T10:50:42.800Z,8.83
2022-10-06T10:53:15.170Z,6.40
2022-10-06T10:55:48.265Z,5.93
2022-10-06T10:58:18.974Z,5.67
2022-10-06T11:00:49.198Z,5.70
2022-10-06T11:03:15.819Z,8.40
2022-10-06T11:05:55.699Z,10.00
2022-10-06T11:08:41.044Z,10.13
2022-10-06T11:11:52.225Z,8.47
2022-10-06T11:14:26.379Z,6.90
2022-10-06T11:17:07.246Z,9.60
2022-10-06T11:19:58.152Z,8.97
2022-10-06T11:22:45.383Z,7.50
2022-10-06T11:25:22.966Z,7.60
2022-10-06T11:27:59.275Z,5.43
2022-10-06T11:30:26.814Z,6.97
2022-10-06T11:33:06.457Z,6.37
2022-10-06T11:35:36.437Z,5.93
2022-10-06T11:38:10.964Z,7.03
2022-10-06T11:40:42.307Z,5.57
2022-10-06T11:43:17.056Z,7.27
2022-10-06T11:46:05.705Z,7.80
2022-10-06T11:48:32.962Z,4.10
2022-10-06T11:51:24.966Z,4.60
2022-10-06T11:53:52.568Z,6.97
2022-10-06T11:56:19.003Z,8.70
2022-10-06T11:58:51.603Z,7.60
2022-10-06T12:01:45.091Z,8.87
2022-10-06T12:04:11.446Z,12.00
2022-10-06T12:06:44.535Z,9.33
2022-10-06T12:09:25.580Z,5.80
2022-10-06T12:11:53.702Z,7.83
2022-10-06T12:16:32.398Z,5.27
2022-10-06T12:17:43.169Z,9.20
2022-10-06T12:20:26.848Z,8.70
2022-10-06T12:23:05.249Z,6.90
2022-10-06T12:25:46.855Z,6.47
2022-10-06T12:28:25.223Z,22.77
2022-10-06T12:31:01.511Z,5.77
2022-10-06T12:33:38.894Z,6.43
2022-10-06T12:36:32.336Z,9.43
2022-10-06T12:39:07.705Z,4.50
2022-10-06T12:41:57.996Z,12.90
2022-10-06T12:44:51.639Z,13.47
2022-10-06T12:47:25.209Z,9.43
2022-10-06T12:50:01.661Z,8.33
2022-10-06T12:52:33.968Z,9.43
2022-10-06T12:55:32.208Z,7.73
2022-10-06T12:57:59.254Z,11.23
2022-10-06T13:00:34.807Z,5.63
2022-10-06T13:03:04.329Z,8.40
2022-10-06T13:05:30.799Z,8.63
2022-10-06T13:08:21.336Z,7.70
2022-10-06T13:10:47.808Z,8.70
2022-10-06T13:13:24.189Z,4.83
2022-10-06T13:16:00.598Z,4.00
2022-10-06T13:18:27.575Z,11.00
2022-10-06T13:20:57.742Z,7.90
2022-10-06T13:23:35.315Z,5.30
2022-10-06T13:26:30.298Z,5.83
2022-10-06T13:28:59.083Z,6.83
2022-10-06T13:31:30.400Z,6.73
2022-10-06T13:34:18.074Z,4.73
2022-10-06T13:36:49.889Z,3.40
2022-10-06T13:39:19.184Z,3.63
2022-10-06T13:41:57.041Z,4.97
2022-10-06T13:44:36.368Z,8.00
2022-10-06T13:47:13.937Z,9.47
2022-10-06T13:49:47.508Z,3.17
2022-10-06T13:52:34.820Z,3.07
2022-10-06T13:55:02.773Z,4.50
2022-10-06T13:57:33.058Z,7.10
2022-10-06T14:00:14.434Z,4.43
2022-10-06T14:02:43.461Z,6.47
2022-10-06T14:05:26.784Z,5.43
2022-10-06T14:08:11.465Z,2.57
2022-10-06T14:10:41.275Z,3.70
2022-10-06T14:13:13.165Z,2.50
2022-10-06T14:15:48.194Z,2.60
2022-10-06T14:18:41.960Z,4.37
2022-10-06T14:21:19.077Z,5.33
2022-10-06T14:23:51.008Z,6.47
2022-10-06T14:26:19.813Z,2.73
2022-10-06T14:28:52.818Z,3.97
2022-10-06T14:31:21.185Z,4.60
2022-10-06T14:33:49.231Z,8.70
2022-10-06T14:36:21.441Z,2.23
2022-10-06T14:38:48.904Z,8.23
2022-10-06T14:41:18.989Z,6.23
2022-10-06T14:43:48.682Z,3.93
2022-10-06T14:46:15.943Z,3.33
2022-10-06T14:48:42.975Z,9.23
2022-10-06T14:51:09.827Z,2.67
2022-10-06T14:53:39.296Z,3.07
2022-10-06T14:56:08.973Z,5.90
2022-10-06T14:58:39.480Z,6.87
2022-10-06T15:01:07.561Z,4.90
2022-10-06T15:03:37.005Z,5.73
2022-10-06T15:06:25.267Z,4.43
2022-10-06T15:08:52.933Z,6.43
2022-10-06T15:11:21.435Z,3.80
2022-10-06T15:13:48.182Z,6.03
2022-10-06T15:16:15.437Z,6.50
2022-10-06T15:18:42.929Z,7.63
2022-10-06T15:21:11.467Z,3.50
2022-10-06T15:23:39.281Z,2.70
2022-10-06T15:26:25.064Z,3.90
2022-10-06T15:29:00.654Z,3.80
2022-10-06T15:31:35.905Z,9.43
2022-10-06T15:34:05.550Z,4.13
2022-10-06T15:36:37.151Z,8.67
2022-10-06T15:39:06.990Z,8.47
2022-10-06T15:41:34.959Z,6.93
2022-10-06T15:44:03.234Z,8.03
2022-10-06T15:46:35.197Z,7.10
2022-10-06T15:49:04.818Z,3.43
2022-10-06T15:51:42.972Z,5.40
2022-10-06T15:54:11.010Z,5.77
2022-10-06T15:56:38.178Z,3.23
2022-10-06T15:59:06.563Z,6.53
2022-10-06T16:01:35.881Z,3.20
2022-10-06T16:04:12.166Z,5.50
2022-10-06T16:06:49.041Z,6.00
2022-10-06T16:09:18.038Z,5.40
2022-10-06T16:11:45.275Z,8.33
2022-10-06T16:14:12.037Z,12.60
2022-10-06T16:16:43.288Z,5.80
2022-10-06T16:19:10.571Z,7.83
2022-10-06T16:21:39.204Z,6.40
2022-10-06T16:24:06.065Z,7.30
2022-10-06T16:26:33.078Z,5.20
2022-10-06T16:29:00.344Z,6.83
2022-10-06T16:31:26.938Z,7.87
2022-10-06T16:33:53.483Z,9.17
2022-10-06T16:36:20.068Z,10.07
2022-10-06T16:38:49.986Z,6.90
2022-10-06T16:41:16.876Z,6.33
2022-10-06T16:43:45.145Z,11.97
2022-10-06T16:46:15.003Z,4.07
2022-10-06T16:48:44.679Z,7.57
2022-10-06T16:51:15.693Z,6.73
2022-10-06T16:53:45.138Z,6.97
2022-10-06T16:56:14.549Z,8.13
2022-10-06T16:58:43.204Z,10.63
2022-10-06T17:01:11.596Z,3.90
2022-10-06T17:03:38.445Z,10.40
2022-10-06T17:06:10.058Z,10.07
2022-10-06T17:08:37.247Z,7.93
2022-10-06T17:11:16.224Z,6.63
2022-10-06T17:13:44.544Z,5.50
2022-10-06T17:16:13.035Z,4.40
2022-10-06T17:18:40.078Z,7.47
2022-10-06T17:21:32.194Z,7.63
2022-10-06T17:23:58.452Z,10.37
2022-10-06T17:26:30.498Z,7.40
2022-10-06T17:28:59.000Z,6.73
2022-10-06T17:31:37.507Z,7.23
2022-10-06T17:34:11.276Z,6.97
2022-10-06T17:36:43.507Z,8.53
2022-10-06T17:39:13.913Z,10.20
2022-10-06T17:41:42.510Z,12.57
2022-10-06T17:44:14.410Z,12.97
2022-10-06T17:46:42.569Z,13.57
2022-10-06T17:49:10.976Z,8.77
2022-10-06T17:51:40.608Z,18.60
2022-10-06T17:54:12.015Z,19.87
2022-10-06T17:56:39.066Z,14.23
2022-10-06T17:59:11.177Z,12.87
2022-10-06T18:01:37.782Z,10.80
2022-10-06T18:04:06.529Z,18.17
2022-10-06T18:06:35.408Z,7.57
2022-10-06T18:09:03.342Z,9.27
2022-10-06T18:11:35.801Z,8.67
2022-10-06T18:14:05.450Z,15.97
2022-10-06T18:16:56.252Z,16.03
2022-10-06T18:19:26.685Z,8.23
2022-10-06T18:21:56.620Z,11.80
2022-10-06T18:24:25.519Z,9.27
2022-10-06T18:26:54.407Z,10.73
2022-10-06T18:29:26.768Z,16.73
2022-10-06T18:31:53.974Z,16.33
2022-10-06T18:37:07.998Z,7.13
2022-10-06T18:39:36.395Z,6.90
2022-10-06T18:42:05.369Z,7.10
2022-10-06T18:44:50.652Z,5.30
2022-10-06T18:47:35.605Z,8.70
2022-10-06T18:50:03.551Z,9.07
2022-10-06T18:52:30.383Z,5.93
2022-10-06T18:54:56.864Z,8.07
2022-10-06T18:57:27.674Z,9.43
2022-10-06T18:59:54.999Z,12.57
2022-10-06T19:02:21.617Z,11.70
2022-10-06T19:04:48.545Z,10.90
2022-10-06T19:07:15.348Z,10.17
2022-10-06T19:09:46.478Z,11.43
2022-10-06T19:12:14.259Z,14.00
2022-10-06T19:14:47.206Z,16.57
2022-10-06T19:17:15.206Z,17.40
2022-10-06T19:19:51.370Z,25.33
2022-10-06T19:22:19.974Z,24.77
2022-10-06T19:24:48.650Z,22.37
2022-10-06T19:27:24.353Z,25.40
2022-10-06T19:29:54.526Z,24.13
2022-10-06T19:32:27.230Z,25.50
2022-10-06T19:34:58.005Z,33.70
2022-10-06T19:37:29.455Z,25.40
2022-10-06T19:39:56.846Z,25.27
2022-10-06T19:42:42.234Z,23.67
2022-10-06T19:45:09.762Z,22.37
2022-10-06T19:47:36.342Z,22.43
2022-10-06T19:50:11.272Z,20.93
2022-10-06T19:52:39.002Z,25.80
2022-10-06T19:55:09.172Z,25.27
2022-10-06T19:57:36.008Z,22.23
2022-10-06T20:00:04.859Z,23.83
2022-10-06T20:02:31.421Z,22.93
2022-10-06T20:04:57.998Z,25.77
2022-10-06T20:07:27.725Z,26.37
2022-10-06T20:09:54.915Z,20.83
2022-10-06T20:12:24.902Z,19.10
2022-10-06T20:14:53.688Z,30.00
2022-10-06T20:17:20.908Z,32.53
2022-10-06T20:19:47.569Z,26.50
2022-10-06T20:22:14.231Z,23.53
2022-10-06T20:24:40.969Z,29.47
2022-10-06T20:27:07.470Z,29.40
2022-10-06T20:29:34.655Z,27.20
2022-10-06T20:32:01.320Z,29.57
2022-10-06T20:34:32.299Z,32.03
2022-10-06T20:37:01.852Z,30.23
2022-10-06T20:39:48.357Z,31.87
2022-10-06T20:42:15.540Z,27.63
2022-10-06T20:44:43.140Z,33.37
2022-10-06T20:47:10.739Z,28.63
2022-10-06T20:49:37.249Z,25.93
2022-10-06T20:52:05.857Z,32.57
2022-10-06T20:54:35.221Z,32.07
2022-10-06T20:57:04.366Z,34.83
2022-10-06T20:59:31.535Z,35.90
2022-10-06T21:01:59.989Z,31.67
2022-10-06T21:04:30.324Z,32.63
2022-10-06T21:06:57.286Z,29.47
2022-10-06T21:09:24.602Z,29.07
2022-10-06T21:11:51.603Z,33.00
2022-10-06T21:14:18.547Z,30.57
2022-10-06T21:16:46.554Z,35.87
2022-10-06T21:19:15.533Z,32.03
2022-10-06T21:21:43.188Z,27.37
2022-10-06T21:24:09.899Z,32.63
2022-10-06T21:26:38.464Z,28.70
2022-10-06T21:29:05.658Z,26.27
2022-10-06T21:31:33.200Z,29.33
2022-10-06T21:34:01.420Z,28.67
2022-10-06T21:36:30.296Z,29.37
2022-10-06T21:38:57.995Z,36.73
2022-10-06T21:41:29.948Z,28.77
2022-10-06T21:44:01.453Z,32.27
2022-10-06T21:46:33.393Z,31.60
2022-10-06T21:49:00.811Z,27.97
2022-10-06T21:51:29.293Z,35.83
2022-10-06T21:53:56.995Z,31.30
2022-10-06T21:56:24.660Z,30.60
2022-10-06T21:58:53.027Z,30.43
2022-10-06T22:01:21.739Z,28.30
2022-10-06T22:03:48.838Z,32.70
2022-10-06T22:06:19.415Z,32.40
2022-10-06T22:08:46.699Z,36.20
2022-10-06T22:11:24.588Z,32.63
2022-10-06T22:13:54.099Z,34.73
2022-10-06T22:16:22.866Z,32.27
2022-10-06T22:18:50.024Z,35.50
2022-10-06T22:21:21.824Z,33.70
2022-10-06T22:23:57.014Z,34.97
2022-10-06T22:26:24.492Z,32.80
2022-10-06T22:28:53.123Z,32.63
2022-10-06T22:31:25.483Z,38.90
2022-10-06T22:33:57.149Z,31.03
2022-10-06T22:36:24.462Z,28.07
2022-10-06T22:38:51.541Z,29.30
2022-10-06T22:41:18.060Z,30.47
2022-10-06T22:43:44.683Z,28.80
2022-10-06T22:46:11.988Z,37.23
2022-10-06T22:48:38.853Z,35.40
2022-10-06T22:51:07.568Z,36.93
2022-10-06T22:53:34.431Z,28.20
2022-10-06T22:56:02.016Z,28.07
2022-10-06T22:58:28.860Z,30.43
2022-10-06T23:00:55.592Z,31.13
2022-10-06T23:03:23.002Z,32.13
2022-10-06T23:06:00.241Z,29.17
2022-10-06T23:08:34.027Z,31.07
2022-10-06T23:11:05.773Z,32.63
2022-10-06T23:13:32.510Z,28.17
2022-10-06T23:16:07.623Z,31.67
2022-10-06T23:18:36.297Z,27.03
2022-10-06T23:21:07.887Z,30.80
2022-10-06T23:23:34.563Z,30.70
2022-10-06T23:26:12.170Z,36.73
2022-10-06T23:28:39.040Z,29.37
2022-10-06T23:31:07.681Z,28.90
2022-10-06T23:33:34.752Z,26.03
2022-10-06T23:36:04.948Z,29.03
2022-10-06T23:38:31.423Z,28.37
2022-10-06T23:40:58.290Z,33.77
2022-10-06T23:43:24.810Z,25.50
2022-10-06T23:45:51.948Z,27.63
2022-10-06T23:48:18.534Z,28.63
2022-10-06T23:51:08.819Z,30.63
2022-10-06T23:53:36.146Z,25.50
2022-10-06T23:56:04.917Z,28.23
2022-10-06T23:58:31.769Z,27.67
